Portada
METAR-TAF:

METAR-TAF

Aeropuertos :

Lac Qui Parle County Airport

Madison, Minnesota, Estados Unidos

latitud: 44-59-10N, longitud: 096-10-40W, altitud: 330 m

Observación

El informe se hizo hace 13 minutos, a las 06:35 UTC
Viento calma
Temperatura 11°C
Humedad 54%
Presión 1025 hPa
Visibilidad: 16.1 km
Cielo despejado

METAR: KDXX 310635Z AUTO 00000KT 10SM CLR 11/02 A3026 RMK AO2

Hora: 01:48 (06:48 UTC)


TAF: falta

Observaciones y pronósticos meteorológicos de más de 4000 aeropuertos (mensajes METAR y TAF).

Los puntos amarillos y rojos representan las estaciones disponibles.

Ponga el ratón en el punto deseado para ver el nombre de la estación.

Haga clic para ver las observaciones y los pronósticos meteorológicos.

Para cambiar el mapa : haga clic en los botones verdes con una cruz de color negro para hacer un zoom, en el botón verde con un guión para alejar o en las flechas verdes para mapas adyacentes.


METAR-TAF: